< < Back
Terminal Aerodrome Forecast


Current Version              Previous Versions:   1  2  3  4  5  6  7  8  9  

Terminal Aerodrome Forecast

356
FTUS42 KMLB 262100 AAA
TAFMCO
TAF AMD
KMCO 262103Z 2621/2718 31009KT P6SM FEW150 SCT250
     FM270000 31007KT P6SM FEW250
     FM271600 30012KT P6SM SKC=



Latest METAR

297
SAUS70 KWBC 262300 RRE
MTRMCO
METAR KMCO 262253Z 00000KT 10SM FEW170 BKN260 14/09 A3017 RMK AO2 SLP215
T01390089


USA.gov is the U.S. government's official web portal to all federal, state and local government web resources and services.